createdAt,value
2022-11-28T00:02:51.363Z,-3.93
2022-11-28T00:07:54.058Z,-3.93
2022-11-28T00:12:56.575Z,-3.88
2022-11-28T00:17:59.203Z,-3.83
2022-11-28T00:23:01.778Z,-3.81
2022-11-28T00:28:04.290Z,-3.62
2022-11-28T00:33:06.866Z,-3.56
2022-11-28T00:38:09.401Z,-3.52
2022-11-28T00:43:12.987Z,-3.56
2022-11-28T00:48:15.527Z,-3.56
2022-11-28T00:53:18.450Z,-3.61
2022-11-28T00:58:21.008Z,-3.58
2022-11-28T01:03:23.615Z,-3.58
2022-11-28T01:08:27.105Z,-3.77
2022-11-28T01:13:29.834Z,-3.86
2022-11-28T01:18:32.358Z,-3.81
2022-11-28T01:23:35.071Z,-3.64
2022-11-28T01:28:37.622Z,-3.65
2022-11-28T01:33:40.215Z,-3.77
2022-11-28T01:38:43.491Z,-3.57
2022-11-28T01:44:07.374Z,-3.65
2022-11-28T01:49:09.919Z,-3.72
2022-11-28T01:54:14.807Z,-3.66
2022-11-28T01:59:19.248Z,-3.90
2022-11-28T02:04:23.161Z,-3.79
2022-11-28T02:09:25.739Z,-3.89
2022-11-28T02:14:28.186Z,-3.73
2022-11-28T02:20:02.159Z,-3.80
2022-11-28T02:25:36.382Z,-3.79
2022-11-28T02:31:09.596Z,-3.73
2022-11-28T02:36:24.521Z,-3.90
2022-11-28T02:41:53.955Z,-3.94
2022-11-28T02:46:59.914Z,-3.83
2022-11-28T02:52:17.963Z,-3.95
2022-11-28T02:57:20.433Z,-4.26
2022-11-28T03:02:29.240Z,-4.48
2022-11-28T03:08:00.987Z,-4.54
2022-11-28T03:13:21.609Z,-4.62
2022-11-28T03:18:30.659Z,-4.60
2022-11-28T03:23:42.932Z,-4.63
2022-11-28T03:28:53.245Z,-4.45
2022-11-28T03:33:59.489Z,-4.62
2022-11-28T03:39:09.043Z,-4.74
2022-11-28T03:44:18.221Z,-4.53
2022-11-28T03:49:30.656Z,-4.73
2022-11-28T03:54:59.850Z,-4.79
2022-11-28T04:00:09.471Z,-4.72
2022-11-28T04:05:37.400Z,-4.81
2022-11-28T04:11:06.165Z,-4.83
2022-11-28T04:16:25.426Z,-4.82
2022-11-28T04:21:35.184Z,-4.61
2022-11-28T04:26:45.326Z,-5.03
2022-11-28T04:31:51.556Z,-4.95
2022-11-28T04:36:57.774Z,-4.86
2022-11-28T04:42:08.874Z,-4.99
2022-11-28T04:47:11.926Z,-4.80
2022-11-28T04:52:38.364Z,-4.63
2022-11-28T04:57:45.350Z,-4.57
2022-11-28T05:02:51.699Z,-4.61
2022-11-28T05:07:54.456Z,-4.50
2022-11-28T05:12:57.033Z,-4.37
2022-11-28T05:17:59.803Z,-4.53
2022-11-28T05:23:02.818Z,-4.61
2022-11-28T05:28:09.114Z,-4.54
2022-11-28T05:33:11.621Z,-4.28
2022-11-28T05:38:14.169Z,-4.09
2022-11-28T05:43:16.687Z,-4.01
2022-11-28T05:48:19.624Z,-3.89
2022-11-28T05:53:22.610Z,-3.93
2022-11-28T05:58:25.110Z,-4.05
2022-11-28T06:03:27.681Z,-4.04
2022-11-28T06:08:30.510Z,-4.17
2022-11-28T06:13:33.067Z,-4.13
2022-11-28T06:18:35.615Z,-4.22
2022-11-28T06:23:39.276Z,-4.47
2022-11-28T06:28:43.283Z,-4.11
2022-11-28T06:33:46.409Z,-3.90
2022-11-28T06:38:49.308Z,-3.94
2022-11-28T06:43:51.803Z,-4.04
2022-11-28T06:48:55.127Z,-4.23
2022-11-28T06:53:57.913Z,-4.00
2022-11-28T06:59:01.075Z,-3.83
2022-11-28T07:04:03.775Z,-3.83
2022-11-28T07:09:06.301Z,-3.91
2022-11-28T07:14:10.480Z,-3.79
2022-11-28T07:19:13.806Z,-3.73
2022-11-28T07:24:19.720Z,-3.75
2022-11-28T07:29:24.619Z,-3.75
2022-11-28T07:34:27.228Z,-3.56
2022-11-28T07:39:29.871Z,-3.30
2022-11-28T07:44:32.422Z,-3.16
2022-11-28T07:49:35.659Z,-3.14
2022-11-28T07:54:38.212Z,-3.37
2022-11-28T07:59:40.952Z,-2.94
2022-11-28T08:04:49.358Z,-3.30
2022-11-28T08:09:54.252Z,-3.17
2022-11-28T08:14:56.950Z,-3.33
2022-11-28T08:19:59.566Z,-3.48
2022-11-28T08:25:02.162Z,-3.51
2022-11-28T08:30:08.589Z,-3.36
2022-11-28T08:35:11.258Z,-3.44
2022-11-28T08:40:15.239Z,-3.28
2022-11-28T08:45:17.790Z,-3.44
2022-11-28T08:50:20.360Z,-3.56
2022-11-28T08:55:31.688Z,-3.65
2022-11-28T09:00:35.059Z,-3.66
2022-11-28T09:05:37.687Z,-3.64
2022-11-28T09:10:42.672Z,-3.66
2022-11-28T09:15:50.073Z,-3.88
2022-11-28T09:21:05.743Z,-3.80
2022-11-28T09:26:15.564Z,-3.78
2022-11-28T09:31:19.769Z,-3.74
2022-11-28T09:36:24.060Z,-3.64
2022-11-28T09:41:32.763Z,-3.59
2022-11-28T09:46:38.300Z,-3.76
2022-11-28T09:51:58.741Z,-3.67
2022-11-28T09:57:03.890Z,-3.52
2022-11-28T10:02:13.157Z,-3.59
2022-11-28T10:07:24.470Z,-3.73
2022-11-28T10:12:54.735Z,-3.90
2022-11-28T10:18:21.225Z,-3.86
2022-11-28T10:23:41.964Z,-3.68
2022-11-28T10:28:50.278Z,-3.78
2022-11-28T10:33:57.615Z,-3.75
2022-11-28T10:39:12.208Z,-3.67
2022-11-28T10:44:29.091Z,-3.56
2022-11-28T10:49:40.915Z,-3.24
2022-11-28T10:55:03.735Z,-3.33
2022-11-28T11:00:14.117Z,-3.07
2022-11-28T11:05:24.418Z,-3.11
2022-11-28T11:10:39.270Z,-2.95
2022-11-28T11:15:42.289Z,-3.19
2022-11-28T11:20:45.084Z,-3.10
2022-11-28T11:25:55.564Z,-3.03
2022-11-28T11:31:19.808Z,-3.00
2022-11-28T11:36:31.349Z,-2.82
2022-11-28T11:41:34.274Z,-2.84
2022-11-28T11:46:57.761Z,-3.16
2022-11-28T11:52:06.981Z,-3.38
2022-11-28T11:57:31.902Z,-3.59
2022-11-28T12:02:44.034Z,-3.59
2022-11-28T12:08:11.608Z,-3.55
2022-11-28T12:13:21.216Z,-3.83
2022-11-28T12:18:42.186Z,-3.73
2022-11-28T12:24:03.736Z,-4.04
2022-11-28T12:29:34.083Z,-4.14
2022-11-28T12:34:39.599Z,-3.95
2022-11-28T12:40:04.111Z,-3.92
2022-11-28T12:45:15.536Z,-3.86
2022-11-28T12:50:30.028Z,-3.96
2022-11-28T12:55:43.548Z,-4.02
2022-11-28T13:01:13.813Z,-4.09
2022-11-28T13:06:42.129Z,-4.20
2022-11-28T13:12:26.560Z,-4.11
2022-11-28T13:17:47.128Z,-3.92
2022-11-28T13:22:58.420Z,-3.95
2022-11-28T13:28:17.859Z,-4.07
2022-11-28T13:33:29.393Z,-4.16
2022-11-28T13:39:08.137Z,-4.04
2022-11-28T13:44:18.999Z,-4.26
2022-11-28T13:49:26.662Z,-4.18
2022-11-28T13:54:32.065Z,-4.09
2022-11-28T13:59:35.670Z,-4.17
2022-11-28T14:04:44.505Z,-4.14
2022-11-28T14:10:01.266Z,-4.03
2022-11-28T14:15:31.174Z,-4.13
2022-11-28T14:20:50.871Z,-4.07
2022-11-28T14:25:54.788Z,-4.22
2022-11-28T14:31:05.484Z,-4.22
2022-11-28T14:36:24.984Z,-4.44
2022-11-28T14:41:29.090Z,-4.50
2022-11-28T14:46:32.671Z,-4.64
2022-11-28T14:51:47.832Z,-4.97
2022-11-28T14:56:56.746Z,-4.98
2022-11-28T15:02:11.679Z,-4.92
2022-11-28T15:07:23.668Z,-4.85
2022-11-28T15:12:35.248Z,-4.93
2022-11-28T15:17:37.914Z,-4.74
2022-11-28T15:22:42.762Z,-4.59
2022-11-28T15:27:45.735Z,-4.60
2022-11-28T15:32:48.861Z,-4.44
2022-11-28T15:37:55.224Z,-4.25
2022-11-28T15:43:09.573Z,-4.53
2022-11-28T15:48:38.999Z,-4.75
2022-11-28T15:53:43.538Z,-4.83
2022-11-28T15:58:47.991Z,-4.99
2022-11-28T16:04:13.529Z,-5.29
2022-11-28T16:09:19.004Z,-5.19
2022-11-28T16:14:24.274Z,-5.32
2022-11-28T16:19:32.863Z,-5.25
2022-11-28T16:24:47.461Z,-5.13
2022-11-28T16:29:51.003Z,-5.08
2022-11-28T16:34:55.534Z,-4.81
2022-11-28T16:40:22.100Z,-4.82
2022-11-28T16:45:28.045Z,-4.77
2022-11-28T16:50:30.665Z,-4.78
2022-11-28T16:55:37.507Z,-4.69
2022-11-28T17:00:44.524Z,-4.74
2022-11-28T17:05:47.097Z,-4.69
2022-11-28T17:10:49.998Z,-4.60
2022-11-28T17:15:52.886Z,-4.50
2022-11-28T17:20:55.602Z,-4.44
2022-11-28T17:25:58.123Z,-4.51
2022-11-28T17:31:00.712Z,-4.34
2022-11-28T17:36:03.908Z,-4.25
2022-11-28T17:41:09.971Z,-4.33
2022-11-28T17:46:13.145Z,-4.28
2022-11-28T17:51:16.966Z,-4.28
2022-11-28T17:56:19.466Z,-4.26
2022-11-28T18:01:26.847Z,-4.17
2022-11-28T18:06:34.375Z,-4.13
2022-11-28T18:11:37.235Z,-3.99
2022-11-28T18:16:41.124Z,-4.01
2022-11-28T18:21:44.247Z,-4.03
2022-11-28T18:26:47.230Z,-4.06
2022-11-28T18:31:50.385Z,-3.82
2022-11-28T18:37:00.223Z,-4.14
2022-11-28T18:42:06.612Z,-4.16
2022-11-28T18:47:09.478Z,-4.17
2022-11-28T18:52:13.047Z,-4.29
2022-11-28T18:57:15.978Z,-4.54
2022-11-28T19:02:18.771Z,-4.45
2022-11-28T19:07:23.780Z,-4.58
2022-11-28T19:12:26.443Z,-4.67
2022-11-28T19:17:29.209Z,-4.42
2022-11-28T19:22:34.937Z,-4.48
2022-11-28T19:27:38.045Z,-4.45
2022-11-28T19:32:40.610Z,-4.43
2022-11-28T19:37:43.906Z,-4.55
2022-11-28T19:42:46.615Z,-4.66
2022-11-28T19:47:49.453Z,-4.76
2022-11-28T19:52:53.220Z,-4.62
2022-11-28T19:57:55.824Z,-4.45
2022-11-28T20:03:10.090Z,-4.45
2022-11-28T20:08:14.309Z,-4.30
2022-11-28T20:13:16.990Z,-4.30
2022-11-28T20:18:19.713Z,-4.49
2022-11-28T20:23:22.751Z,-4.91
2022-11-28T20:28:25.335Z,-4.61
2022-11-28T20:33:28.395Z,-4.71
2022-11-28T20:38:31.296Z,-4.55
2022-11-28T20:43:36.203Z,-4.61
2022-11-28T20:48:39.417Z,-4.47
2022-11-28T20:53:42.125Z,-4.58
2022-11-28T20:58:45.181Z,-4.48
2022-11-28T21:03:48.270Z,-4.44
2022-11-28T21:08:51.626Z,-4.54
2022-11-28T21:13:56.654Z,-4.42
2022-11-28T21:19:07.746Z,-4.47
2022-11-28T21:24:13.435Z,-4.60
2022-11-28T21:29:18.541Z,-4.18
2022-11-28T21:34:22.481Z,-4.35
2022-11-28T21:39:25.181Z,-4.26
2022-11-28T21:44:28.390Z,-4.17
2022-11-28T21:49:31.875Z,-4.19
2022-11-28T21:54:34.745Z,-4.25
2022-11-28T21:59:37.228Z,-4.22
2022-11-28T22:04:39.819Z,-4.04
2022-11-28T22:09:42.561Z,-3.87
2022-11-28T22:14:46.215Z,-3.78
2022-11-28T22:19:48.906Z,-4.04
2022-11-28T22:24:51.421Z,-3.87
2022-11-28T22:29:53.894Z,-3.87
2022-11-28T22:34:56.421Z,-3.77
2022-11-28T22:39:58.942Z,-3.97
2022-11-28T22:45:02.002Z,-4.04
2022-11-28T22:50:06.306Z,-4.47
2022-11-28T22:55:10.112Z,-4.18
2022-11-28T23:00:13.355Z,-4.10
2022-11-28T23:05:16.028Z,-4.11
2022-11-28T23:10:18.644Z,-4.20
2022-11-28T23:15:21.435Z,-3.97
2022-11-28T23:20:24.736Z,-4.18
2022-11-28T23:25:27.223Z,-3.78
2022-11-28T23:30:29.892Z,-3.97
2022-11-28T23:35:32.727Z,-4.01
2022-11-28T23:40:35.298Z,-4.08
2022-11-28T23:45:37.864Z,-4.10
2022-11-28T23:50:40.486Z,-4.19
2022-11-28T23:55:43.610Z,-4.17
